createdAt,value
2022-10-04T00:05:03.281Z,66115.06
2022-10-04T00:10:19.747Z,66111.41
2022-10-04T00:15:27.222Z,66132.56
2022-10-04T00:21:10.265Z,66134.25
2022-10-04T00:26:50.268Z,66117.09
2022-10-04T00:32:28.201Z,66131.13
2022-10-04T00:37:57.315Z,66124.69
2022-10-04T00:43:05.517Z,66130.59
2022-10-04T00:48:48.777Z,66135.94
2022-10-04T00:54:02.506Z,66116.13
2022-10-04T00:59:32.651Z,66138.72
2022-10-04T01:04:44.151Z,66107.56
2022-10-04T01:09:54.770Z,66090.41
2022-10-04T01:15:07.568Z,66037.84
2022-10-04T01:20:32.371Z,66042.22
2022-10-04T01:25:49.632Z,66031.06
2022-10-04T01:30:54.351Z,66045.78
2022-10-04T01:35:58.936Z,66021.88
2022-10-04T01:41:08.575Z,66035.16
2022-10-04T01:46:16.777Z,66036.34
2022-10-04T01:51:25.267Z,66036.41
2022-10-04T01:56:35.005Z,66046.97
2022-10-04T02:01:44.580Z,66040.19
2022-10-04T02:06:53.201Z,66062.41
2022-10-04T02:11:59.274Z,66048.66
2022-10-04T02:17:10.625Z,66072.13
2022-10-04T02:22:14.954Z,66060.44
2022-10-04T02:27:20.444Z,66063.09
2022-10-04T02:32:42.233Z,66073.56
2022-10-04T02:37:48.492Z,66090.88
2022-10-04T02:43:00.978Z,66076.06
2022-10-04T02:48:13.941Z,66081.84
2022-10-04T02:53:22.755Z,66089.34
2022-10-04T02:58:30.906Z,66101.50
2022-10-04T03:03:39.924Z,66064.09
2022-10-04T03:08:52.754Z,66086.16
2022-10-04T03:14:05.728Z,66075.44
2022-10-04T03:19:14.565Z,66056.69
2022-10-04T03:24:21.797Z,66080.78
2022-10-04T03:29:32.681Z,66070.16
2022-10-04T03:34:40.198Z,66079.19
2022-10-04T03:39:47.231Z,66094.09
2022-10-04T03:44:55.279Z,66082.50
2022-10-04T03:50:02.576Z,66088.28
2022-10-04T03:55:11.908Z,66092.09
2022-10-04T04:00:21.620Z,66101.13
2022-10-04T04:05:32.600Z,66104.25
2022-10-04T04:10:44.625Z,66109.09
2022-10-04T04:15:53.290Z,66126.13
2022-10-04T04:21:04.172Z,66129.00
2022-10-04T04:26:25.106Z,66128.47
2022-10-04T04:31:36.518Z,66121.31
2022-10-04T04:36:41.865Z,66112.28
2022-10-04T04:41:50.154Z,66111.84
2022-10-04T04:47:00.800Z,66096.75
2022-10-04T04:52:05.166Z,66085.25
2022-10-04T04:57:10.570Z,66075.88
2022-10-04T05:02:35.639Z,66062.56
2022-10-04T05:07:44.334Z,66062.13
2022-10-04T05:12:52.892Z,66080.78
2022-10-04T05:18:02.716Z,66090.78
2022-10-04T05:23:15.068Z,66094.09
2022-10-04T05:28:22.774Z,66111.84
2022-10-04T05:33:46.702Z,66110.97
2022-10-04T05:39:04.435Z,66100.69
2022-10-04T05:44:27.608Z,66107.13
2022-10-04T05:49:43.956Z,66128.28
2022-10-04T05:54:52.106Z,66124.06
2022-10-04T06:00:09.918Z,66146.66
2022-10-04T06:05:28.859Z,66147.66
2022-10-04T06:10:59.224Z,66141.84
2022-10-04T06:16:16.907Z,66157.94
2022-10-04T06:21:25.684Z,66157.94
2022-10-04T06:26:41.186Z,66151.03
2022-10-04T06:32:22.275Z,66165.50
2022-10-04T06:37:56.766Z,66176.13
2022-10-04T06:43:20.212Z,66156.84
2022-10-04T06:48:57.966Z,66162.38
2022-10-04T06:54:16.377Z,66211.50
2022-10-04T07:00:04.870Z,66220.09
2022-10-04T07:05:20.597Z,66235.09
2022-10-04T07:10:34.536Z,66241.03
2022-10-04T07:15:53.765Z,66229.72
2022-10-04T07:21:07.094Z,66215.19
2022-10-04T07:26:22.510Z,66207.84
2022-10-04T07:31:29.270Z,66221.59
2022-10-04T07:36:45.037Z,66222.84
2022-10-04T07:41:54.519Z,66234.56
2022-10-04T07:47:04.296Z,66264.69
2022-10-04T07:52:32.315Z,66294.56
2022-10-04T07:57:47.475Z,66281.22
2022-10-04T08:03:12.572Z,66311.09
2022-10-04T08:08:40.599Z,66332.28
2022-10-04T08:13:53.612Z,66305.81
2022-10-04T08:19:20.589Z,66277.03
2022-10-04T08:24:36.857Z,66300.91
2022-10-04T08:30:02.379Z,66295.78
2022-10-04T08:40:12.742Z,66274.88
2022-10-04T08:45:58.417Z,66299.91
2022-10-04T08:51:24.804Z,66330.03
2022-10-04T08:56:41.849Z,66407.22
2022-10-04T09:02:07.000Z,66396.06
2022-10-04T09:07:39.471Z,66388.00
2022-10-04T09:12:57.567Z,66397.28
2022-10-04T09:18:21.185Z,66408.97
2022-10-04T09:24:04.822Z,66353.75
2022-10-04T09:29:24.040Z,66393.34
2022-10-04T09:34:39.162Z,66352.22
2022-10-04T09:40:07.739Z,66356.50
2022-10-04T09:45:32.028Z,66363.22
2022-10-04T09:51:08.410Z,66399.81
2022-10-04T09:56:43.336Z,66395.44
2022-10-04T10:02:13.272Z,66389.00
2022-10-04T10:07:38.204Z,66417.63
2022-10-04T10:13:21.240Z,66426.13
2022-10-04T10:18:42.753Z,66447.53
2022-10-04T10:24:09.769Z,66473.84
2022-10-04T10:29:54.755Z,66469.09
2022-10-04T10:35:43.465Z,66510.00
2022-10-04T10:41:01.128Z,66481.97
2022-10-04T10:46:21.831Z,66507.22
2022-10-04T10:51:47.025Z,66484.28
2022-10-04T10:57:18.380Z,66513.22
2022-10-04T11:02:51.769Z,66487.97
2022-10-04T11:08:08.188Z,66465.41
2022-10-04T11:13:41.631Z,66494.34
2022-10-04T11:19:19.448Z,66523.94
2022-10-04T11:24:56.844Z,66474.47
2022-10-04T11:30:17.368Z,66493.78
2022-10-04T11:35:46.644Z,66487.50
2022-10-04T11:41:11.083Z,66467.94
2022-10-04T11:46:25.064Z,66424.50
2022-10-04T11:52:07.426Z,66375.81
2022-10-04T11:57:32.365Z,66405.28
2022-10-04T12:03:14.778Z,66469.63
2022-10-04T12:08:39.274Z,66523.16
2022-10-04T12:14:06.100Z,66566.88
2022-10-04T12:19:54.494Z,66515.88
2022-10-04T12:25:27.010Z,66466.03
2022-10-04T12:30:44.485Z,66418.16
2022-10-04T12:36:13.725Z,66405.09
2022-10-04T12:41:29.922Z,66375.81
2022-10-04T12:46:46.293Z,66410.63
2022-10-04T12:51:59.152Z,66421.75
2022-10-04T12:57:20.268Z,66420.22
2022-10-04T13:02:49.039Z,66423.44
2022-10-04T13:08:12.769Z,66413.78
2022-10-04T13:13:42.740Z,66405.81
2022-10-04T13:18:56.561Z,66393.91
2022-10-04T13:24:09.032Z,66434.19
2022-10-04T13:29:24.370Z,66421.31
2022-10-04T13:34:37.790Z,66426.75
2022-10-04T13:39:59.013Z,66495.25
2022-10-04T13:45:24.448Z,66547.50
2022-10-04T13:50:39.418Z,66553.34
2022-10-04T13:56:07.115Z,66651.88
2022-10-04T14:01:41.730Z,66584.09
2022-10-04T14:12:49.906Z,66464.31
2022-10-04T14:18:27.456Z,66462.19
2022-10-04T14:23:58.198Z,66509.91
2022-10-04T14:29:35.788Z,66563.75
2022-10-04T14:34:57.229Z,66523.88
2022-10-04T14:40:19.762Z,66467.47
2022-10-04T14:45:39.842Z,66464.31
2022-10-04T14:50:57.883Z,66455.13
2022-10-04T14:56:37.131Z,66484.66
2022-10-04T15:02:07.370Z,66503.38
2022-10-04T15:07:21.567Z,66468.63
2022-10-04T15:18:29.312Z,66419.69
2022-10-04T15:23:43.603Z,66421.22
2022-10-04T15:29:03.688Z,66411.56
2022-10-04T15:34:25.197Z,66400.34
2022-10-04T15:39:43.132Z,66391.22
2022-10-04T15:45:30.133Z,66391.28
2022-10-04T15:50:40.977Z,66384.88
2022-10-04T15:56:12.847Z,66383.53
2022-10-04T16:01:55.305Z,66382.53
2022-10-04T16:07:12.984Z,66367.53
2022-10-04T16:12:25.288Z,66366.44
2022-10-04T16:18:00.350Z,66373.59
2022-10-04T16:23:28.070Z,66373.97
2022-10-04T16:29:04.771Z,66376.19
2022-10-04T16:34:31.829Z,66367.69
2022-10-04T16:40:02.993Z,66358.03
2022-10-04T16:45:33.577Z,66331.81
2022-10-04T16:51:03.954Z,66322.53
2022-10-04T16:56:16.573Z,66318.78
2022-10-04T17:02:11.369Z,66327.19
2022-10-04T17:07:24.442Z,66320.91
2022-10-04T17:12:38.863Z,66296.78
2022-10-04T17:17:48.133Z,66288.72
2022-10-04T17:23:05.886Z,66293.03
2022-10-04T17:28:26.380Z,66295.63
2022-10-04T17:33:53.777Z,66263.00
2022-10-04T17:39:09.327Z,66272.13
2022-10-04T17:44:42.058Z,66270.41
2022-10-04T17:50:18.061Z,66234.03
2022-10-04T17:55:28.837Z,66201.41
2022-10-04T18:00:52.389Z,66190.63
2022-10-04T18:05:59.343Z,66191.06
2022-10-04T18:11:07.039Z,66181.94
2022-10-04T18:16:22.489Z,66165.34
2022-10-04T18:21:29.681Z,66161.59
2022-10-04T18:26:34.665Z,66164.72
2022-10-04T18:31:41.397Z,66183.09
2022-10-04T18:36:54.059Z,66201.88
2022-10-04T18:42:19.837Z,66182.03
2022-10-04T18:47:33.601Z,66171.22
2022-10-04T18:52:45.850Z,66162.22
2022-10-04T18:58:13.865Z,66135.84
2022-10-04T19:03:28.998Z,66129.44
2022-10-04T19:08:40.961Z,66145.41
2022-10-04T19:13:52.284Z,66108.63
2022-10-04T19:19:34.393Z,66101.75
2022-10-04T19:25:01.867Z,66099.53
2022-10-04T19:30:18.205Z,66077.56
2022-10-04T19:35:35.029Z,66080.78
2022-10-04T19:40:49.353Z,66080.69
2022-10-04T19:46:11.278Z,66077.56
2022-10-04T19:51:28.364Z,66067.75
2022-10-04T19:56:40.000Z,66061.59
2022-10-04T20:01:45.086Z,66071.06
2022-10-04T20:06:50.115Z,66052.94
2022-10-04T20:11:55.467Z,66055.09
2022-10-04T20:17:07.166Z,66052.84
2022-10-04T20:22:29.531Z,66017.13
2022-10-04T20:28:03.821Z,66019.66
2022-10-04T20:33:07.951Z,65984.88
2022-10-04T20:38:31.808Z,65944.81
2022-10-04T20:43:54.748Z,65952.31
2022-10-04T20:48:59.633Z,65938.84
2022-10-04T20:54:03.664Z,65954.91
2022-10-04T20:59:16.814Z,65955.97
2022-10-04T21:04:30.038Z,65944.81
2022-10-04T21:09:36.063Z,65944.63
2022-10-04T21:14:41.543Z,65932.59
2022-10-04T21:19:46.459Z,65962.56
2022-10-04T21:24:56.023Z,65957.13
2022-10-04T21:30:02.462Z,65967.28
2022-10-04T21:35:08.171Z,65958.72
2022-10-04T21:40:13.938Z,65968.88
2022-10-04T21:45:19.926Z,65956.84
2022-10-04T21:50:24.119Z,65927.59
2022-10-04T21:55:28.079Z,65902.56
2022-10-04T22:00:34.329Z,65904.16
2022-10-04T22:05:38.522Z,65900.31
2022-10-04T22:10:43.582Z,65902.03
2022-10-04T22:15:49.129Z,65905.06
2022-10-04T22:20:53.093Z,65897.56
2022-10-04T22:25:57.707Z,65881.72
2022-10-04T22:31:03.190Z,65887.50
2022-10-04T22:36:16.053Z,65887.50
2022-10-04T22:41:20.975Z,65910.06
2022-10-04T22:46:34.721Z,65890.81
2022-10-04T22:52:02.739Z,65917.09
2022-10-04T22:57:06.885Z,65924.41
2022-10-04T23:02:16.128Z,65901.94
2022-10-04T23:07:22.079Z,65885.00
2022-10-04T23:12:27.730Z,65859.81
2022-10-04T23:17:36.143Z,65843.66
2022-10-04T23:22:43.392Z,65856.50
2022-10-04T23:27:50.572Z,65851.78
2022-10-04T23:33:02.382Z,65860.94
2022-10-04T23:38:07.432Z,65924.50
2022-10-04T23:43:17.042Z,65947.56
2022-10-04T23:48:25.530Z,65849.00
2022-10-04T23:53:32.581Z,65849.00
2022-10-04T23:58:40.137Z,65803.03
